sensor_id;sensor_type;location;lat;lon;timestamp;temperature;humidity
47757;SHT35;22147;52.388;13.390;2022-09-12T00:01:22;13.69;91.10
47757;SHT35;22147;52.388;13.390;2022-09-12T00:03:58;13.70;90.97
47757;SHT35;22147;52.388;13.390;2022-09-12T00:06:35;13.73;90.63
47757;SHT35;22147;52.388;13.390;2022-09-12T00:09:09;13.73;90.37
47757;SHT35;22147;52.388;13.390;2022-09-12T00:11:42;13.70;89.99
47757;SHT35;22147;52.388;13.390;2022-09-12T00:14:16;13.73;89.62
47757;SHT35;22147;52.388;13.390;2022-09-12T00:16:43;13.72;89.26
47757;SHT35;22147;52.388;13.390;2022-09-12T00:19:11;13.70;88.96
47757;SHT35;22147;52.388;13.390;2022-09-12T00:21:40;13.63;88.98
47757;SHT35;22147;52.388;13.390;2022-09-12T00:24:09;13.58;89.08
47757;SHT35;22147;52.388;13.390;2022-09-12T00:26:36;13.54;89.14
47757;SHT35;22147;52.388;13.390;2022-09-12T00:29:03;13.47;89.12
47757;SHT35;22147;52.388;13.390;2022-09-12T00:31:31;13.45;89.18
47757;SHT35;22147;52.388;13.390;2022-09-12T00:34:00;13.42;89.15
47757;SHT35;22147;52.388;13.390;2022-09-12T00:36:30;13.37;89.30
47757;SHT35;22147;52.388;13.390;2022-09-12T00:38:58;13.31;89.45
47757;SHT35;22147;52.388;13.390;2022-09-12T00:41:37;13.30;89.45
47757;SHT35;22147;52.388;13.390;2022-09-12T00:46:58;13.17;89.26
47757;SHT35;22147;52.388;13.390;2022-09-12T00:49:51;13.03;89.60
47757;SHT35;22147;52.388;13.390;2022-09-12T00:52:49;13.01;89.70
47757;SHT35;22147;52.388;13.390;2022-09-12T00:55:27;12.94;89.77
47757;SHT35;22147;52.388;13.390;2022-09-12T01:00:45;12.86;90.51
47757;SHT35;22147;52.388;13.390;2022-09-12T01:03:19;12.83;90.77
47757;SHT35;22147;52.388;13.390;2022-09-12T01:06:09;12.82;91.35
47757;SHT35;22147;52.388;13.390;2022-09-12T01:08:42;12.82;91.29
47757;SHT35;22147;52.388;13.390;2022-09-12T01:11:13;12.83;90.98
47757;SHT35;22147;52.388;13.390;2022-09-12T01:13:44;12.82;90.61
47757;SHT35;22147;52.388;13.390;2022-09-12T01:16:12;12.82;90.21
47757;SHT35;22147;52.388;13.390;2022-09-12T01:22:59;12.83;89.56
47757;SHT35;22147;52.388;13.390;2022-09-12T01:31:52;12.58;90.42
47757;SHT35;22147;52.388;13.390;2022-09-12T01:34:45;12.48;90.69
47757;SHT35;22147;52.388;13.390;2022-09-12T01:37:30;12.45;90.73
47757;SHT35;22147;52.388;13.390;2022-09-12T01:40:38;12.34;90.79
47757;SHT35;22147;52.388;13.390;2022-09-12T01:43:51;12.34;91.04
47757;SHT35;22147;52.388;13.390;2022-09-12T01:52:44;12.45;89.82
47757;SHT35;22147;52.388;13.390;2022-09-12T01:55:29;12.44;89.65
47757;SHT35;22147;52.388;13.390;2022-09-12T01:58:18;12.48;89.51
47757;SHT35;22147;52.388;13.390;2022-09-12T02:01:13;12.46;89.35
47757;SHT35;22147;52.388;13.390;2022-09-12T02:04:16;12.24;89.54
47757;SHT35;22147;52.388;13.390;2022-09-12T02:07:27;12.01;90.43
47757;SHT35;22147;52.388;13.390;2022-09-12T02:10:17;11.97;90.63
47757;SHT35;22147;52.388;13.390;2022-09-12T02:16:17;11.93;90.00
47757;SHT35;22147;52.388;13.390;2022-09-12T02:19:04;11.84;90.20
47757;SHT35;22147;52.388;13.390;2022-09-12T02:21:41;11.80;90.48
47757;SHT35;22147;52.388;13.390;2022-09-12T02:24:14;11.80;90.59
47757;SHT35;22147;52.388;13.390;2022-09-12T02:26:55;11.83;90.38
47757;SHT35;22147;52.388;13.390;2022-09-12T02:29:23;11.82;90.03
47757;SHT35;22147;52.388;13.390;2022-09-12T02:34:54;11.83;89.74
47757;SHT35;22147;52.388;13.390;2022-09-12T02:37:45;11.82;89.46
47757;SHT35;22147;52.388;13.390;2022-09-12T02:40:17;11.79;89.44
47757;SHT35;22147;52.388;13.390;2022-09-12T02:42:45;11.73;89.39
47757;SHT35;22147;52.388;13.390;2022-09-12T02:45:12;11.65;89.42
47757;SHT35;22147;52.388;13.390;2022-09-12T02:48:14;11.56;89.81
47757;SHT35;22147;52.388;13.390;2022-09-12T02:50:44;11.56;89.85
47757;SHT35;22147;52.388;13.390;2022-09-12T02:53:12;11.60;89.76
47757;SHT35;22147;52.388;13.390;2022-09-12T02:55:42;11.55;89.49
47757;SHT35;22147;52.388;13.390;2022-09-12T02:58:21;11.59;89.67
47757;SHT35;22147;52.388;13.390;2022-09-12T03:08:11;11.47;89.41
47757;SHT35;22147;52.388;13.390;2022-09-12T03:13:53;11.62;89.19
47757;SHT35;22147;52.388;13.390;2022-09-12T03:20:09;11.69;88.76
47757;SHT35;22147;52.388;13.390;2022-09-12T03:23:10;11.60;88.84
47757;SHT35;22147;52.388;13.390;2022-09-12T03:25:58;11.32;90.64
47757;SHT35;22147;52.388;13.390;2022-09-12T03:28:30;11.28;91.19
47757;SHT35;22147;52.388;13.390;2022-09-12T03:30:58;11.34;91.29
47757;SHT35;22147;52.388;13.390;2022-09-12T03:33:26;11.42;91.12
47757;SHT35;22147;52.388;13.390;2022-09-12T03:35:54;11.43;90.67
47757;SHT35;22147;52.388;13.390;2022-09-12T03:38:21;11.40;90.66
47757;SHT35;22147;52.388;13.390;2022-09-12T03:40:48;11.49;90.61
47757;SHT35;22147;52.388;13.390;2022-09-12T03:43:20;11.53;90.34
47757;SHT35;22147;52.388;13.390;2022-09-12T03:45:50;11.53;90.11
47757;SHT35;22147;52.388;13.390;2022-09-12T03:48:20;11.50;89.91
47757;SHT35;22147;52.388;13.390;2022-09-12T03:50:47;11.52;89.95
47757;SHT35;22147;52.388;13.390;2022-09-12T03:53:14;11.50;89.65
47757;SHT35;22147;52.388;13.390;2022-09-12T03:55:43;11.49;89.45
47757;SHT35;22147;52.388;13.390;2022-09-12T03:58:10;11.36;89.52
47757;SHT35;22147;52.388;13.390;2022-09-12T04:00:38;11.28;89.96
47757;SHT35;22147;52.388;13.390;2022-09-12T04:03:05;11.25;90.24
47757;SHT35;22147;52.388;13.390;2022-09-12T04:05:32;11.22;90.12
47757;SHT35;22147;52.388;13.390;2022-09-12T04:07:59;11.26;90.04
47757;SHT35;22147;52.388;13.390;2022-09-12T04:10:26;11.22;89.55
47757;SHT35;22147;52.388;13.390;2022-09-12T04:12:53;11.14;89.45
47757;SHT35;22147;52.388;13.390;2022-09-12T04:15:20;11.14;89.54
47757;SHT35;22147;52.388;13.390;2022-09-12T04:17:47;11.18;89.69
47757;SHT35;22147;52.388;13.390;2022-09-12T04:20:14;11.19;89.29
47757;SHT35;22147;52.388;13.390;2022-09-12T04:22:41;11.14;89.35
47757;SHT35;22147;52.388;13.390;2022-09-12T04:25:08;11.12;89.61
47757;SHT35;22147;52.388;13.390;2022-09-12T04:27:35;11.14;89.58
47757;SHT35;22147;52.388;13.390;2022-09-12T04:30:04;11.14;89.46
47757;SHT35;22147;52.388;13.390;2022-09-12T04:32:31;11.15;89.41
47757;SHT35;22147;52.388;13.390;2022-09-12T04:34:58;11.15;89.23
47757;SHT35;22147;52.388;13.390;2022-09-12T04:37:25;11.19;89.19
47757;SHT35;22147;52.388;13.390;2022-09-12T04:39:52;11.19;88.92
47757;SHT35;22147;52.388;13.390;2022-09-12T04:42:24;11.24;88.53
47757;SHT35;22147;52.388;13.390;2022-09-12T04:44:51;11.19;88.43
47757;SHT35;22147;52.388;13.390;2022-09-12T04:47:18;11.15;88.54
47757;SHT35;22147;52.388;13.390;2022-09-12T04:49:47;11.24;88.50
47757;SHT35;22147;52.388;13.390;2022-09-12T04:52:14;11.17;88.07
47757;SHT35;22147;52.388;13.390;2022-09-12T04:54:42;11.12;88.29
47757;SHT35;22147;52.388;13.390;2022-09-12T04:57:09;11.11;88.70
47757;SHT35;22147;52.388;13.390;2022-09-12T04:59:37;11.14;88.92
47757;SHT35;22147;52.388;13.390;2022-09-12T05:02:05;11.10;89.42
47757;SHT35;22147;52.388;13.390;2022-09-12T05:04:32;11.07;89.68
47757;SHT35;22147;52.388;13.390;2022-09-12T05:06:59;11.12;89.59
47757;SHT35;22147;52.388;13.390;2022-09-12T05:09:26;11.19;89.22
47757;SHT35;22147;52.388;13.390;2022-09-12T05:11:53;11.22;89.10
47757;SHT35;22147;52.388;13.390;2022-09-12T05:14:35;11.17;89.09
47757;SHT35;22147;52.388;13.390;2022-09-12T05:17:04;11.10;89.57
47757;SHT35;22147;52.388;13.390;2022-09-12T05:19:32;11.02;90.09
47757;SHT35;22147;52.388;13.390;2022-09-12T05:21:59;10.92;90.68
47757;SHT35;22147;52.388;13.390;2022-09-12T05:24:27;10.97;91.07
47757;SHT35;22147;52.388;13.390;2022-09-12T05:26:55;11.10;90.99
47757;SHT35;22147;52.388;13.390;2022-09-12T05:29:22;11.18;91.01
47757;SHT35;22147;52.388;13.390;2022-09-12T05:31:51;11.22;90.65
47757;SHT35;22147;52.388;13.390;2022-09-12T05:34:19;11.29;91.04
47757;SHT35;22147;52.388;13.390;2022-09-12T05:36:47;11.34;90.99
47757;SHT35;22147;52.388;13.390;2022-09-12T05:39:15;11.36;91.14
47757;SHT35;22147;52.388;13.390;2022-09-12T05:41:42;11.36;91.49
47757;SHT35;22147;52.388;13.390;2022-09-12T05:44:13;11.42;91.82
47757;SHT35;22147;52.388;13.390;2022-09-12T05:46:44;11.55;91.82
47757;SHT35;22147;52.388;13.390;2022-09-12T05:49:14;11.67;91.84
47757;SHT35;22147;52.388;13.390;2022-09-12T05:51:44;11.80;91.99
47757;SHT35;22147;52.388;13.390;2022-09-12T05:54:17;11.95;91.97
47757;SHT35;22147;52.388;13.390;2022-09-12T05:56:46;12.11;91.43
47757;SHT35;22147;52.388;13.390;2022-09-12T05:59:18;12.28;91.12
47757;SHT35;22147;52.388;13.390;2022-09-12T06:01:47;12.36;91.16
47757;SHT35;22147;52.388;13.390;2022-09-12T06:04:15;12.45;91.08
47757;SHT35;22147;52.388;13.390;2022-09-12T06:06:44;12.59;90.51
47757;SHT35;22147;52.388;13.390;2022-09-12T06:09:15;12.73;90.83
47757;SHT35;22147;52.388;13.390;2022-09-12T06:11:45;12.86;90.89
47757;SHT35;22147;52.388;13.390;2022-09-12T06:14:16;13.00;90.85
47757;SHT35;22147;52.388;13.390;2022-09-12T06:16:43;13.11;90.87
47757;SHT35;22147;52.388;13.390;2022-09-12T06:19:21;13.31;90.60
47757;SHT35;22147;52.388;13.390;2022-09-12T06:21:49;13.45;90.12
47757;SHT35;22147;52.388;13.390;2022-09-12T06:24:20;13.62;89.90
47757;SHT35;22147;52.388;13.390;2022-09-12T06:26:49;13.73;89.56
47757;SHT35;22147;52.388;13.390;2022-09-12T06:29:18;13.85;89.02
47757;SHT35;22147;52.388;13.390;2022-09-12T06:31:45;14.05;89.07
47757;SHT35;22147;52.388;13.390;2022-09-12T06:34:15;14.17;88.04
47757;SHT35;22147;52.388;13.390;2022-09-12T06:36:46;14.28;87.82
47757;SHT35;22147;52.388;13.390;2022-09-12T06:39:19;14.45;87.50
47757;SHT35;22147;52.388;13.390;2022-09-12T06:41:49;14.64;87.31
47757;SHT35;22147;52.388;13.390;2022-09-12T06:44:21;14.84;86.75
47757;SHT35;22147;52.388;13.390;2022-09-12T06:46:48;14.89;86.41
47757;SHT35;22147;52.388;13.390;2022-09-12T06:49:16;15.05;86.21
47757;SHT35;22147;52.388;13.390;2022-09-12T06:51:43;15.29;85.85
47757;SHT35;22147;52.388;13.390;2022-09-12T06:54:15;15.44;84.78
47757;SHT35;22147;52.388;13.390;2022-09-12T06:56:45;15.63;84.53
47757;SHT35;22147;52.388;13.390;2022-09-12T06:59:13;15.84;84.88
47757;SHT35;22147;52.388;13.390;2022-09-12T07:01:40;16.09;84.26
47757;SHT35;22147;52.388;13.390;2022-09-12T07:04:09;16.01;83.42
47757;SHT35;22147;52.388;13.390;2022-09-12T07:06:41;16.28;82.79
47757;SHT35;22147;52.388;13.390;2022-09-12T07:09:13;16.47;82.01
47757;SHT35;22147;52.388;13.390;2022-09-12T07:11:45;16.44;81.91
47757;SHT35;22147;52.388;13.390;2022-09-12T07:14:14;16.61;82.78
47757;SHT35;22147;52.388;13.390;2022-09-12T07:16:42;17.09;80.36
47757;SHT35;22147;52.388;13.390;2022-09-12T07:19:10;17.15;79.47
47757;SHT35;22147;52.388;13.390;2022-09-12T07:21:37;17.15;78.80
47757;SHT35;22147;52.388;13.390;2022-09-12T07:24:08;17.02;79.66
47757;SHT35;22147;52.388;13.390;2022-09-12T07:26:39;17.19;80.02
47757;SHT35;22147;52.388;13.390;2022-09-12T07:29:14;17.78;79.07
47757;SHT35;22147;52.388;13.390;2022-09-12T07:32:02;18.36;77.27
47757;SHT35;22147;52.388;13.390;2022-09-12T07:34:30;18.42;75.35
47757;SHT35;22147;52.388;13.390;2022-09-12T07:36:58;18.31;76.20
47757;SHT35;22147;52.388;13.390;2022-09-12T07:39:25;18.22;75.19
47757;SHT35;22147;52.388;13.390;2022-09-12T07:41:52;17.74;77.11
47757;SHT35;22147;52.388;13.390;2022-09-12T07:44:19;17.74;77.00
47757;SHT35;22147;52.388;13.390;2022-09-12T07:46:47;17.71;75.70
47757;SHT35;22147;52.388;13.390;2022-09-12T07:49:16;17.80;76.08
47757;SHT35;22147;52.388;13.390;2022-09-12T07:51:43;18.06;75.69
47757;SHT35;22147;52.388;13.390;2022-09-12T07:54:10;18.35;73.88
47757;SHT35;22147;52.388;13.390;2022-09-12T07:56:37;18.94;75.68
47757;SHT35;22147;52.388;13.390;2022-09-12T07:59:08;19.20;71.65
47757;SHT35;22147;52.388;13.390;2022-09-12T08:01:36;19.40;71.48
47757;SHT35;22147;52.388;13.390;2022-09-12T08:04:03;18.90;71.60
47757;SHT35;22147;52.388;13.390;2022-09-12T08:06:33;18.99;72.60
47757;SHT35;22147;52.388;13.390;2022-09-12T08:09:04;19.35;71.59
47757;SHT35;22147;52.388;13.390;2022-09-12T08:11:31;19.62;68.57
47757;SHT35;22147;52.388;13.390;2022-09-12T08:13:58;19.55;66.64
47757;SHT35;22147;52.388;13.390;2022-09-12T08:16:30;19.79;69.87
47757;SHT35;22147;52.388;13.390;2022-09-12T08:19:01;19.96;68.28
47757;SHT35;22147;52.388;13.390;2022-09-12T08:21:31;20.08;68.21
47757;SHT35;22147;52.388;13.390;2022-09-12T08:24:04;20.24;68.20
47757;SHT35;22147;52.388;13.390;2022-09-12T08:26:33;20.37;66.46
47757;SHT35;22147;52.388;13.390;2022-09-12T08:29:01;20.13;65.09
47757;SHT35;22147;52.388;13.390;2022-09-12T08:31:29;19.85;65.77
47757;SHT35;22147;52.388;13.390;2022-09-12T08:34:04;19.86;64.71
47757;SHT35;22147;52.388;13.390;2022-09-12T08:36:32;20.19;65.10
47757;SHT35;22147;52.388;13.390;2022-09-12T08:39:05;20.17;64.72
47757;SHT35;22147;52.388;13.390;2022-09-12T08:41:47;20.19;66.81
47757;SHT35;22147;52.388;13.390;2022-09-12T08:44:55;20.14;66.00
47757;SHT35;22147;52.388;13.390;2022-09-12T08:47:41;20.60;62.41
47757;SHT35;22147;52.388;13.390;2022-09-12T08:53:10;20.40;61.07
47757;SHT35;22147;52.388;13.390;2022-09-12T08:56:00;19.83;62.62
47757;SHT35;22147;52.388;13.390;2022-09-12T08:58:38;19.24;63.63
47757;SHT35;22147;52.388;13.390;2022-09-12T09:01:35;18.76;65.26
47757;SHT35;22147;52.388;13.390;2022-09-12T09:04:36;19.03;65.70
47757;SHT35;22147;52.388;13.390;2022-09-12T09:17:42;19.89;63.87
47757;SHT35;22147;52.388;13.390;2022-09-12T09:20:37;19.76;63.66
47757;SHT35;22147;52.388;13.390;2022-09-12T09:23:15;19.61;63.20
47757;SHT35;22147;52.388;13.390;2022-09-12T09:26:42;20.27;60.10
47757;SHT35;22147;52.388;13.390;2022-09-12T09:29:19;20.16;63.00
47757;SHT35;22147;52.388;13.390;2022-09-12T09:31:54;21.02;59.33
47757;SHT35;22147;52.388;13.390;2022-09-12T09:34:29;21.12;59.59
47757;SHT35;22147;52.388;13.390;2022-09-12T09:37:42;21.08;58.88
47757;SHT35;22147;52.388;13.390;2022-09-12T09:40:26;21.36;56.77
47757;SHT35;22147;52.388;13.390;2022-09-12T09:43:20;21.06;59.31
47757;SHT35;22147;52.388;13.390;2022-09-12T09:45:56;20.67;60.07
47757;SHT35;22147;52.388;13.390;2022-09-12T09:48:40;20.40;60.96
47757;SHT35;22147;52.388;13.390;2022-09-12T09:51:08;20.19;61.75
47757;SHT35;22147;52.388;13.390;2022-09-12T09:53:51;19.98;62.00
47757;SHT35;22147;52.388;13.390;2022-09-12T09:56:41;20.03;63.08
47757;SHT35;22147;52.388;13.390;2022-09-12T09:59:25;19.61;60.99
47757;SHT35;22147;52.388;13.390;2022-09-12T10:02:07;19.38;60.91
47757;SHT35;22147;52.388;13.390;2022-09-12T10:04:58;19.27;60.82
47757;SHT35;22147;52.388;13.390;2022-09-12T10:07:26;19.34;61.11
47757;SHT35;22147;52.388;13.390;2022-09-12T10:10:22;19.44;61.12
47757;SHT35;22147;52.388;13.390;2022-09-12T10:13:06;19.62;59.98
47757;SHT35;22147;52.388;13.390;2022-09-12T10:15:35;19.96;61.05
47757;SHT35;22147;52.388;13.390;2022-09-12T10:18:03;20.50;59.61
47757;SHT35;22147;52.388;13.390;2022-09-12T10:20:43;20.61;61.74
47757;SHT35;22147;52.388;13.390;2022-09-12T10:23:35;21.25;57.70
47757;SHT35;22147;52.388;13.390;2022-09-12T10:26:17;21.29;56.53
47757;SHT35;22147;52.388;13.390;2022-09-12T10:28:53;21.27;56.71
47757;SHT35;22147;52.388;13.390;2022-09-12T10:31:41;21.27;56.78
47757;SHT35;22147;52.388;13.390;2022-09-12T10:34:43;20.63;58.95
47757;SHT35;22147;52.388;13.390;2022-09-12T10:37:36;20.24;59.24
47757;SHT35;22147;52.388;13.390;2022-09-12T10:40:23;20.08;58.98
47757;SHT35;22147;52.388;13.390;2022-09-12T10:42:59;19.66;59.93
47757;SHT35;22147;52.388;13.390;2022-09-12T10:45:31;19.47;60.68
47757;SHT35;22147;52.388;13.390;2022-09-12T10:48:38;19.34;60.87
47757;SHT35;22147;52.388;13.390;2022-09-12T10:54:04;20.20;61.26
47757;SHT35;22147;52.388;13.390;2022-09-12T11:00:13;20.41;59.77
47757;SHT35;22147;52.388;13.390;2022-09-12T11:03:21;20.19;60.00
47757;SHT35;22147;52.388;13.390;2022-09-12T11:05:57;20.08;60.40
47757;SHT35;22147;52.388;13.390;2022-09-12T11:09:05;20.17;59.15
47757;SHT35;22147;52.388;13.390;2022-09-12T11:12:22;20.31;60.22
47757;SHT35;22147;52.388;13.390;2022-09-12T11:18:28;20.47;60.77
47757;SHT35;22147;52.388;13.390;2022-09-12T11:22:12;20.54;59.60
47757;SHT35;22147;52.388;13.390;2022-09-12T11:33:45;20.84;58.27
47757;SHT35;22147;52.388;13.390;2022-09-12T11:36:56;20.79;57.02
47757;SHT35;22147;52.388;13.390;2022-09-12T11:39:43;20.87;58.07
47757;SHT35;22147;52.388;13.390;2022-09-12T11:42:34;20.64;55.48
47757;SHT35;22147;52.388;13.390;2022-09-12T11:45:19;20.85;59.65
47757;SHT35;22147;52.388;13.390;2022-09-12T11:47:59;21.12;59.68
47757;SHT35;22147;52.388;13.390;2022-09-12T11:50:30;21.29;56.61
47757;SHT35;22147;52.388;13.390;2022-09-12T11:53:27;21.36;54.97
47757;SHT35;22147;52.388;13.390;2022-09-12T11:56:16;21.40;55.67
47757;SHT35;22147;52.388;13.390;2022-09-12T11:59:07;21.32;55.16
47757;SHT35;22147;52.388;13.390;2022-09-12T12:01:44;21.16;54.24
47757;SHT35;22147;52.388;13.390;2022-09-12T12:04:28;21.15;54.60
47757;SHT35;22147;52.388;13.390;2022-09-12T12:07:10;21.15;54.72
47757;SHT35;22147;52.388;13.390;2022-09-12T12:09:50;21.20;56.20
47757;SHT35;22147;52.388;13.390;2022-09-12T12:12:27;21.14;55.54
47757;SHT35;22147;52.388;13.390;2022-09-12T12:14:57;21.02;56.66
47757;SHT35;22147;52.388;13.390;2022-09-12T12:17:25;21.26;56.06
47757;SHT35;22147;52.388;13.390;2022-09-12T12:20:03;21.11;54.92
47757;SHT35;22147;52.388;13.390;2022-09-12T12:22:34;21.18;54.74
47757;SHT35;22147;52.388;13.390;2022-09-12T12:25:51;21.20;53.57
47757;SHT35;22147;52.388;13.390;2022-09-12T12:31:10;21.30;56.61
47757;SHT35;22147;52.388;13.390;2022-09-12T12:36:36;21.78;54.75
47757;SHT35;22147;52.388;13.390;2022-09-12T12:39:56;21.67;53.52
47757;SHT35;22147;52.388;13.390;2022-09-12T12:47:39;21.33;55.57
47757;SHT35;22147;52.388;13.390;2022-09-12T12:50:27;21.47;55.26
47757;SHT35;22147;52.388;13.390;2022-09-12T12:58:33;21.32;55.53
47757;SHT35;22147;52.388;13.390;2022-09-12T13:01:21;21.14;55.50
47757;SHT35;22147;52.388;13.390;2022-09-12T13:04:18;21.09;55.41
47757;SHT35;22147;52.388;13.390;2022-09-12T13:07:05;21.16;56.44
47757;SHT35;22147;52.388;13.390;2022-09-12T13:09:50;21.33;56.81
47757;SHT35;22147;52.388;13.390;2022-09-12T13:12:43;21.22;56.34
47757;SHT35;22147;52.388;13.390;2022-09-12T13:18:13;21.57;54.13
47757;SHT35;22147;52.388;13.390;2022-09-12T13:23:41;21.75;54.82
47757;SHT35;22147;52.388;13.390;2022-09-12T13:26:24;21.77;55.46
47757;SHT35;22147;52.388;13.390;2022-09-12T13:29:21;22.00;53.93
47757;SHT35;22147;52.388;13.390;2022-09-12T13:31:56;22.08;54.28
47757;SHT35;22147;52.388;13.390;2022-09-12T13:34:34;22.01;53.68
47757;SHT35;22147;52.388;13.390;2022-09-12T13:37:48;21.75;54.99
47757;SHT35;22147;52.388;13.390;2022-09-12T13:40:35;21.71;53.72
47757;SHT35;22147;52.388;13.390;2022-09-12T13:43:38;21.84;54.18
47757;SHT35;22147;52.388;13.390;2022-09-12T13:46:13;22.05;55.40
47757;SHT35;22147;52.388;13.390;2022-09-12T13:48:43;22.08;53.95
47757;SHT35;22147;52.388;13.390;2022-09-12T13:51:26;21.70;53.28
47757;SHT35;22147;52.388;13.390;2022-09-12T13:54:02;21.81;56.02
47757;SHT35;22147;52.388;13.390;2022-09-12T13:56:30;21.75;53.17
47757;SHT35;22147;52.388;13.390;2022-09-12T13:59:01;21.87;53.50
47757;SHT35;22147;52.388;13.390;2022-09-12T14:01:46;21.85;53.14
47757;SHT35;22147;52.388;13.390;2022-09-12T14:04:25;21.62;54.41
47757;SHT35;22147;52.388;13.390;2022-09-12T14:07:24;21.54;54.17
47757;SHT35;22147;52.388;13.390;2022-09-12T14:09:58;21.62;54.07
47757;SHT35;22147;52.388;13.390;2022-09-12T14:12:37;21.73;52.90
47757;SHT35;22147;52.388;13.390;2022-09-12T14:15:26;21.80;54.00
47757;SHT35;22147;52.388;13.390;2022-09-12T14:18:00;21.67;52.73
47757;SHT35;22147;52.388;13.390;2022-09-12T14:20:35;21.60;55.05
47757;SHT35;22147;52.388;13.390;2022-09-12T14:23:29;21.67;53.71
47757;SHT35;22147;52.388;13.390;2022-09-12T14:26:01;21.57;54.52
47757;SHT35;22147;52.388;13.390;2022-09-12T14:28:31;21.71;56.73
47757;SHT35;22147;52.388;13.390;2022-09-12T14:31:33;21.56;53.16
47757;SHT35;22147;52.388;13.390;2022-09-12T14:34:16;21.53;55.19
47757;SHT35;22147;52.388;13.390;2022-09-12T14:36:53;21.33;52.01
47757;SHT35;22147;52.388;13.390;2022-09-12T14:39:43;21.37;53.97
47757;SHT35;22147;52.388;13.390;2022-09-12T14:42:18;21.46;52.47
47757;SHT35;22147;52.388;13.390;2022-09-12T14:45:29;21.32;54.60
47757;SHT35;22147;52.388;13.390;2022-09-12T14:47:58;21.40;55.02
47757;SHT35;22147;52.388;13.390;2022-09-12T14:50:34;21.46;55.28
47757;SHT35;22147;52.388;13.390;2022-09-12T14:53:23;21.39;54.34
47757;SHT35;22147;52.388;13.390;2022-09-12T14:56:07;21.46;55.89
47757;SHT35;22147;52.388;13.390;2022-09-12T14:58:36;21.35;55.60
47757;SHT35;22147;52.388;13.390;2022-09-12T15:06:38;21.30;53.70
47757;SHT35;22147;52.388;13.390;2022-09-12T15:09:12;21.16;53.68
47757;SHT35;22147;52.388;13.390;2022-09-12T15:11:39;21.16;56.25
47757;SHT35;22147;52.388;13.390;2022-09-12T15:14:13;21.22;56.98
47757;SHT35;22147;52.388;13.390;2022-09-12T15:16:40;21.18;57.95
47757;SHT35;22147;52.388;13.390;2022-09-12T15:19:07;21.20;57.26
47757;SHT35;22147;52.388;13.390;2022-09-12T15:21:35;21.09;56.42
47757;SHT35;22147;52.388;13.390;2022-09-12T15:24:02;20.95;56.81
47757;SHT35;22147;52.388;13.390;2022-09-12T15:26:29;20.89;57.66
47757;SHT35;22147;52.388;13.390;2022-09-12T15:28:57;20.89;58.44
47757;SHT35;22147;52.388;13.390;2022-09-12T15:31:30;20.85;57.37
47757;SHT35;22147;52.388;13.390;2022-09-12T15:34:01;20.84;58.06
47757;SHT35;22147;52.388;13.390;2022-09-12T15:36:28;20.71;55.30
47757;SHT35;22147;52.388;13.390;2022-09-12T15:38:56;20.71;59.16
47757;SHT35;22147;52.388;13.390;2022-09-12T15:41:34;20.47;58.94
47757;SHT35;22147;52.388;13.390;2022-09-12T15:44:10;20.45;60.19
47757;SHT35;22147;52.388;13.390;2022-09-12T15:46:39;20.50;60.87
47757;SHT35;22147;52.388;13.390;2022-09-12T15:49:06;20.55;61.68
47757;SHT35;22147;52.388;13.390;2022-09-12T15:51:33;20.52;61.51
47757;SHT35;22147;52.388;13.390;2022-09-12T15:54:03;20.44;60.63
47757;SHT35;22147;52.388;13.390;2022-09-12T15:56:30;20.43;61.34
47757;SHT35;22147;52.388;13.390;2022-09-12T15:58:57;20.38;62.98
47757;SHT35;22147;52.388;13.390;2022-09-12T16:01:27;20.40;64.49
47757;SHT35;22147;52.388;13.390;2022-09-12T16:03:56;20.36;66.21
47757;SHT35;22147;52.388;13.390;2022-09-12T16:06:23;20.27;65.18
47757;SHT35;22147;52.388;13.390;2022-09-12T16:08:50;20.23;66.15
47757;SHT35;22147;52.388;13.390;2022-09-12T16:11:25;20.10;66.90
47757;SHT35;22147;52.388;13.390;2022-09-12T16:13:54;20.03;69.20
47757;SHT35;22147;52.388;13.390;2022-09-12T16:16:22;20.02;69.34
47757;SHT35;22147;52.388;13.390;2022-09-12T16:18:49;19.94;67.88
47757;SHT35;22147;52.388;13.390;2022-09-12T16:21:17;19.81;68.61
47757;SHT35;22147;52.388;13.390;2022-09-12T16:23:46;19.73;67.56
47757;SHT35;22147;52.388;13.390;2022-09-12T16:26:15;19.65;68.26
47757;SHT35;22147;52.388;13.390;2022-09-12T16:28:43;19.58;67.63
47757;SHT35;22147;52.388;13.390;2022-09-12T16:31:12;19.50;67.80
47757;SHT35;22147;52.388;13.390;2022-09-12T16:33:40;19.44;68.95
47757;SHT35;22147;52.388;13.390;2022-09-12T16:36:13;19.38;68.52
47757;SHT35;22147;52.388;13.390;2022-09-12T16:38:50;19.34;68.85
47757;SHT35;22147;52.388;13.390;2022-09-12T16:41:22;19.30;68.50
47757;SHT35;22147;52.388;13.390;2022-09-12T16:43:54;19.20;69.26
47757;SHT35;22147;52.388;13.390;2022-09-12T16:46:27;19.10;68.40
47757;SHT35;22147;52.388;13.390;2022-09-12T16:48:58;19.02;69.37
47757;SHT35;22147;52.388;13.390;2022-09-12T16:51:32;18.97;71.51
47757;SHT35;22147;52.388;13.390;2022-09-12T16:54:02;18.92;71.85
47757;SHT35;22147;52.388;13.390;2022-09-12T16:56:29;18.84;72.05
47757;SHT35;22147;52.388;13.390;2022-09-12T16:58:56;18.82;72.66
47757;SHT35;22147;52.388;13.390;2022-09-12T17:01:25;18.75;72.93
47757;SHT35;22147;52.388;13.390;2022-09-12T17:03:55;18.68;73.48
47757;SHT35;22147;52.388;13.390;2022-09-12T17:06:26;18.62;73.84
47757;SHT35;22147;52.388;13.390;2022-09-12T17:08:58;18.52;73.75
47757;SHT35;22147;52.388;13.390;2022-09-12T17:11:37;18.41;73.86
47757;SHT35;22147;52.388;13.390;2022-09-12T17:14:07;18.34;74.29
47757;SHT35;22147;52.388;13.390;2022-09-12T17:16:41;18.21;74.48
47757;SHT35;22147;52.388;13.390;2022-09-12T17:19:18;18.08;73.33
47757;SHT35;22147;52.388;13.390;2022-09-12T17:21:46;18.03;73.76
47757;SHT35;22147;52.388;13.390;2022-09-12T17:24:17;18.00;74.40
47757;SHT35;22147;52.388;13.390;2022-09-12T17:26:45;17.91;74.38
47757;SHT35;22147;52.388;13.390;2022-09-12T17:29:14;17.87;74.64
47757;SHT35;22147;52.388;13.390;2022-09-12T17:31:43;17.81;74.71
47757;SHT35;22147;52.388;13.390;2022-09-12T17:34:12;17.67;74.95
47757;SHT35;22147;52.388;13.390;2022-09-12T17:36:43;17.60;75.36
47757;SHT35;22147;52.388;13.390;2022-09-12T17:39:12;17.57;75.81
47757;SHT35;22147;52.388;13.390;2022-09-12T17:41:41;17.46;76.15
47757;SHT35;22147;52.388;13.390;2022-09-12T17:44:13;17.40;76.45
47757;SHT35;22147;52.388;13.390;2022-09-12T17:46:41;17.35;76.60
47757;SHT35;22147;52.388;13.390;2022-09-12T17:49:15;17.24;77.10
47757;SHT35;22147;52.388;13.390;2022-09-12T17:51:43;17.15;77.35